sensor_id;sensor_type;location;lat;lon;timestamp;P1;durP1;ratioP1;P2;durP2;ratioP2
26906;SDS011;14472;56.880;16.658;2023-05-20T00:00:28;2.53;;;1.33;;
26906;SDS011;14472;56.880;16.658;2023-05-20T00:02:54;4.43;;;1.30;;
26906;SDS011;14472;56.880;16.658;2023-05-20T00:05:21;4.13;;;1.43;;
26906;SDS011;14472;56.880;16.658;2023-05-20T00:07:49;1.90;;;1.23;;
26906;SDS011;14472;56.880;16.658;2023-05-20T00:10:15;5.33;;;1.57;;
26906;SDS011;14472;56.880;16.658;2023-05-20T00:12:41;3.30;;;1.10;;
26906;SDS011;14472;56.880;16.658;2023-05-20T00:15:07;2.97;;;1.60;;
26906;SDS011;14472;56.880;16.658;2023-05-20T00:17:33;3.20;;;1.70;;
26906;SDS011;14472;56.880;16.658;2023-05-20T00:19:59;3.00;;;1.37;;
26906;SDS011;14472;56.880;16.658;2023-05-20T00:22:25;5.43;;;1.40;;
26906;SDS011;14472;56.880;16.658;2023-05-20T00:24:50;2.47;;;1.30;;
26906;SDS011;14472;56.880;16.658;2023-05-20T00:27:16;2.60;;;1.40;;
26906;SDS011;14472;56.880;16.658;2023-05-20T00:29:42;2.77;;;1.40;;
26906;SDS011;14472;56.880;16.658;2023-05-20T00:32:09;4.17;;;1.67;;
26906;SDS011;14472;56.880;16.658;2023-05-20T00:34:34;5.07;;;1.63;;
26906;SDS011;14472;56.880;16.658;2023-05-20T00:37:01;2.67;;;1.10;;
26906;SDS011;14472;56.880;16.658;2023-05-20T00:39:27;1.80;;;1.27;;
26906;SDS011;14472;56.880;16.658;2023-05-20T00:41:54;2.27;;;1.43;;
26906;SDS011;14472;56.880;16.658;2023-05-20T00:44:24;2.43;;;1.40;;
26906;SDS011;14472;56.880;16.658;2023-05-20T00:46:50;2.97;;;1.30;;
26906;SDS011;14472;56.880;16.658;2023-05-20T00:49:17;2.67;;;1.30;;
26906;SDS011;14472;56.880;16.658;2023-05-20T00:51:44;3.47;;;1.10;;
26906;SDS011;14472;56.880;16.658;2023-05-20T00:54:11;4.87;;;1.13;;
26906;SDS011;14472;56.880;16.658;2023-05-20T00:56:37;3.53;;;1.40;;
26906;SDS011;14472;56.880;16.658;2023-05-20T00:59:03;1.70;;;1.10;;
26906;SDS011;14472;56.880;16.658;2023-05-20T01:01:30;1.80;;;1.23;;
26906;SDS011;14472;56.880;16.658;2023-05-20T01:03:56;2.13;;;1.20;;
26906;SDS011;14472;56.880;16.658;2023-05-20T01:06:24;2.33;;;1.20;;
26906;SDS011;14472;56.880;16.658;2023-05-20T01:08:50;2.67;;;1.10;;
26906;SDS011;14472;56.880;16.658;2023-05-20T01:11:19;1.67;;;1.10;;
26906;SDS011;14472;56.880;16.658;2023-05-20T01:13:53;1.70;;;1.17;;
26906;SDS011;14472;56.880;16.658;2023-05-20T01:16:23;2.67;;;0.90;;
26906;SDS011;14472;56.880;16.658;2023-05-20T01:18:54;3.10;;;1.10;;
26906;SDS011;14472;56.880;16.658;2023-05-20T01:21:22;4.03;;;1.40;;
26906;SDS011;14472;56.880;16.658;2023-05-20T01:23:49;3.03;;;1.20;;
26906;SDS011;14472;56.880;16.658;2023-05-20T01:26:17;4.63;;;1.60;;
26906;SDS011;14472;56.880;16.658;2023-05-20T01:28:43;1.73;;;1.23;;
26906;SDS011;14472;56.880;16.658;2023-05-20T01:34:05;3.87;;;1.37;;
26906;SDS011;14472;56.880;16.658;2023-05-20T01:36:31;2.77;;;1.60;;
26906;SDS011;14472;56.880;16.658;2023-05-20T01:38:57;3.97;;;1.67;;
26906;SDS011;14472;56.880;16.658;2023-05-20T01:41:27;3.73;;;1.60;;
26906;SDS011;14472;56.880;16.658;2023-05-20T01:44:00;5.80;;;1.50;;
26906;SDS011;14472;56.880;16.658;2023-05-20T01:46:31;2.83;;;1.40;;
26906;SDS011;14472;56.880;16.658;2023-05-20T01:48:58;3.13;;;1.40;;
26906;SDS011;14472;56.880;16.658;2023-05-20T01:51:25;4.17;;;1.70;;
26906;SDS011;14472;56.880;16.658;2023-05-20T01:53:51;3.03;;;1.40;;
26906;SDS011;14472;56.880;16.658;2023-05-20T01:56:17;2.33;;;1.40;;
26906;SDS011;14472;56.880;16.658;2023-05-20T01:58:43;4.50;;;1.80;;
26906;SDS011;14472;56.880;16.658;2023-05-20T02:01:11;3.23;;;1.50;;
26906;SDS011;14472;56.880;16.658;2023-05-20T02:03:37;4.17;;;1.70;;
26906;SDS011;14472;56.880;16.658;2023-05-20T02:06:02;3.00;;;1.20;;
26906;SDS011;14472;56.880;16.658;2023-05-20T02:08:28;4.30;;;1.37;;
26906;SDS011;14472;56.880;16.658;2023-05-20T02:10:54;4.03;;;1.50;;
26906;SDS011;14472;56.880;16.658;2023-05-20T02:13:20;6.30;;;1.97;;
26906;SDS011;14472;56.880;16.658;2023-05-20T02:15:46;2.90;;;1.50;;
26906;SDS011;14472;56.880;16.658;2023-05-20T02:18:11;6.03;;;1.70;;
26906;SDS011;14472;56.880;16.658;2023-05-20T02:20:38;3.17;;;1.70;;
26906;SDS011;14472;56.880;16.658;2023-05-20T02:23:03;4.30;;;1.67;;
26906;SDS011;14472;56.880;16.658;2023-05-20T02:25:32;5.60;;;1.63;;
26906;SDS011;14472;56.880;16.658;2023-05-20T02:27:58;3.17;;;1.77;;
26906;SDS011;14472;56.880;16.658;2023-05-20T02:30:25;4.10;;;1.87;;
26906;SDS011;14472;56.880;16.658;2023-05-20T02:32:51;3.17;;;1.87;;
26906;SDS011;14472;56.880;16.658;2023-05-20T02:35:17;3.77;;;1.80;;
26906;SDS011;14472;56.880;16.658;2023-05-20T02:37:42;2.97;;;1.67;;
26906;SDS011;14472;56.880;16.658;2023-05-20T02:40:09;4.93;;;1.90;;
26906;SDS011;14472;56.880;16.658;2023-05-20T02:42:35;5.07;;;2.20;;
26906;SDS011;14472;56.880;16.658;2023-05-20T02:45:01;6.03;;;1.80;;
26906;SDS011;14472;56.880;16.658;2023-05-20T02:47:27;4.70;;;2.20;;
26906;SDS011;14472;56.880;16.658;2023-05-20T02:49:53;4.93;;;2.03;;
26906;SDS011;14472;56.880;16.658;2023-05-20T02:52:19;4.73;;;2.60;;
26906;SDS011;14472;56.880;16.658;2023-05-20T02:54:45;8.57;;;2.83;;
26906;SDS011;14472;56.880;16.658;2023-05-20T02:57:10;4.50;;;2.70;;
26906;SDS011;14472;56.880;16.658;2023-05-20T02:59:36;4.70;;;2.60;;
26906;SDS011;14472;56.880;16.658;2023-05-20T03:02:02;5.97;;;3.17;;
26906;SDS011;14472;56.880;16.658;2023-05-20T03:04:28;5.83;;;2.40;;
26906;SDS011;14472;56.880;16.658;2023-05-20T03:06:55;6.67;;;2.57;;
26906;SDS011;14472;56.880;16.658;2023-05-20T03:09:22;4.27;;;2.40;;
26906;SDS011;14472;56.880;16.658;2023-05-20T03:11:49;8.20;;;2.90;;
26906;SDS011;14472;56.880;16.658;2023-05-20T03:14:15;3.43;;;2.47;;
26906;SDS011;14472;56.880;16.658;2023-05-20T03:16:40;7.77;;;2.47;;
26906;SDS011;14472;56.880;16.658;2023-05-20T03:19:06;7.27;;;2.60;;
26906;SDS011;14472;56.880;16.658;2023-05-20T03:21:32;5.40;;;2.20;;
26906;SDS011;14472;56.880;16.658;2023-05-20T03:23:58;4.90;;;2.43;;
26906;SDS011;14472;56.880;16.658;2023-05-20T03:26:24;4.87;;;2.80;;
26906;SDS011;14472;56.880;16.658;2023-05-20T03:28:50;5.70;;;2.70;;
26906;SDS011;14472;56.880;16.658;2023-05-20T03:31:15;5.43;;;3.00;;
26906;SDS011;14472;56.880;16.658;2023-05-20T03:33:41;4.87;;;2.83;;
26906;SDS011;14472;56.880;16.658;2023-05-20T03:36:07;5.03;;;2.97;;
26906;SDS011;14472;56.880;16.658;2023-05-20T03:38:33;5.33;;;2.90;;
26906;SDS011;14472;56.880;16.658;2023-05-20T03:40:58;6.33;;;3.07;;
26906;SDS011;14472;56.880;16.658;2023-05-20T03:43:24;4.50;;;2.90;;
26906;SDS011;14472;56.880;16.658;2023-05-20T03:45:51;5.00;;;3.03;;
26906;SDS011;14472;56.880;16.658;2023-05-20T03:48:17;7.60;;;3.40;;
26906;SDS011;14472;56.880;16.658;2023-05-20T03:50:42;7.20;;;3.33;;
26906;SDS011;14472;56.880;16.658;2023-05-20T03:53:08;6.87;;;3.23;;
26906;SDS011;14472;56.880;16.658;2023-05-20T03:55:34;6.30;;;3.40;;
26906;SDS011;14472;56.880;16.658;2023-05-20T03:58:00;5.90;;;3.03;;
26906;SDS011;14472;56.880;16.658;2023-05-20T04:00:25;5.60;;;3.27;;
26906;SDS011;14472;56.880;16.658;2023-05-20T04:02:51;5.17;;;3.07;;
26906;SDS011;14472;56.880;16.658;2023-05-20T04:05:17;6.60;;;3.00;;
26906;SDS011;14472;56.880;16.658;2023-05-20T04:07:43;4.43;;;2.50;;
26906;SDS011;14472;56.880;16.658;2023-05-20T04:10:10;5.73;;;3.07;;
26906;SDS011;14472;56.880;16.658;2023-05-20T04:12:36;3.83;;;2.50;;
26906;SDS011;14472;56.880;16.658;2023-05-20T04:15:02;5.07;;;2.83;;
26906;SDS011;14472;56.880;16.658;2023-05-20T04:17:29;5.03;;;2.50;;
26906;SDS011;14472;56.880;16.658;2023-05-20T04:19:55;4.23;;;2.50;;
26906;SDS011;14472;56.880;16.658;2023-05-20T04:22:23;6.47;;;2.90;;
26906;SDS011;14472;56.880;16.658;2023-05-20T04:24:50;5.23;;;2.60;;
26906;SDS011;14472;56.880;16.658;2023-05-20T04:27:16;6.13;;;2.87;;
26906;SDS011;14472;56.880;16.658;2023-05-20T04:29:42;4.73;;;2.70;;
26906;SDS011;14472;56.880;16.658;2023-05-20T04:32:11;4.33;;;2.50;;
26906;SDS011;14472;56.880;16.658;2023-05-20T04:34:38;5.20;;;2.50;;
26906;SDS011;14472;56.880;16.658;2023-05-20T04:37:03;5.43;;;3.00;;
26906;SDS011;14472;56.880;16.658;2023-05-20T04:39:31;5.57;;;3.53;;
26906;SDS011;14472;56.880;16.658;2023-05-20T04:41:57;8.27;;;3.23;;
26906;SDS011;14472;56.880;16.658;2023-05-20T04:44:23;6.03;;;2.57;;
26906;SDS011;14472;56.880;16.658;2023-05-20T04:46:50;3.27;;;2.10;;
26906;SDS011;14472;56.880;16.658;2023-05-20T04:49:16;6.10;;;2.13;;
26906;SDS011;14472;56.880;16.658;2023-05-20T04:51:42;3.83;;;2.07;;
26906;SDS011;14472;56.880;16.658;2023-05-20T04:54:08;4.40;;;1.80;;
26906;SDS011;14472;56.880;16.658;2023-05-20T04:56:34;3.80;;;2.00;;
26906;SDS011;14472;56.880;16.658;2023-05-20T04:59:00;5.17;;;1.70;;
26906;SDS011;14472;56.880;16.658;2023-05-20T05:01:26;4.63;;;1.70;;
26906;SDS011;14472;56.880;16.658;2023-05-20T05:03:52;5.50;;;2.00;;
26906;SDS011;14472;56.880;16.658;2023-05-20T05:06:18;5.47;;;2.30;;
26906;SDS011;14472;56.880;16.658;2023-05-20T05:08:43;3.77;;;1.60;;
26906;SDS011;14472;56.880;16.658;2023-05-20T05:11:09;3.53;;;1.30;;
26906;SDS011;14472;56.880;16.658;2023-05-20T05:13:35;3.27;;;1.40;;
26906;SDS011;14472;56.880;16.658;2023-05-20T05:16:01;3.13;;;1.30;;
26906;SDS011;14472;56.880;16.658;2023-05-20T05:18:27;3.53;;;1.40;;
26906;SDS011;14472;56.880;16.658;2023-05-20T05:21:03;4.70;;;1.93;;
26906;SDS011;14472;56.880;16.658;2023-05-20T05:23:29;7.53;;;2.60;;
26906;SDS011;14472;56.880;16.658;2023-05-20T05:25:55;4.80;;;2.47;;
26906;SDS011;14472;56.880;16.658;2023-05-20T05:28:21;3.60;;;2.20;;
26906;SDS011;14472;56.880;16.658;2023-05-20T05:30:47;3.87;;;1.77;;
26906;SDS011;14472;56.880;16.658;2023-05-20T05:33:14;4.10;;;1.70;;
26906;SDS011;14472;56.880;16.658;2023-05-20T05:35:40;4.57;;;1.67;;
26906;SDS011;14472;56.880;16.658;2023-05-20T05:38:06;5.57;;;1.90;;
26906;SDS011;14472;56.880;16.658;2023-05-20T05:40:32;3.50;;;1.17;;
26906;SDS011;14472;56.880;16.658;2023-05-20T05:42:58;3.83;;;1.60;;
26906;SDS011;14472;56.880;16.658;2023-05-20T05:45:24;4.77;;;1.93;;
26906;SDS011;14472;56.880;16.658;2023-05-20T05:47:50;3.60;;;1.60;;
26906;SDS011;14472;56.880;16.658;2023-05-20T05:50:16;1.70;;;1.10;;
26906;SDS011;14472;56.880;16.658;2023-05-20T05:52:41;4.30;;;1.47;;
26906;SDS011;14472;56.880;16.658;2023-05-20T05:55:08;3.83;;;1.50;;
26906;SDS011;14472;56.880;16.658;2023-05-20T05:57:34;4.10;;;1.30;;
26906;SDS011;14472;56.880;16.658;2023-05-20T06:00:00;1.60;;;1.00;;
26906;SDS011;14472;56.880;16.658;2023-05-20T06:02:26;4.80;;;1.47;;
26906;SDS011;14472;56.880;16.658;2023-05-20T06:04:52;2.67;;;0.93;;
26906;SDS011;14472;56.880;16.658;2023-05-20T06:07:17;2.47;;;1.30;;
26906;SDS011;14472;56.880;16.658;2023-05-20T06:09:43;2.37;;;1.00;;
26906;SDS011;14472;56.880;16.658;2023-05-20T06:12:09;3.13;;;1.30;;
26906;SDS011;14472;56.880;16.658;2023-05-20T06:14:35;1.50;;;0.80;;
26906;SDS011;14472;56.880;16.658;2023-05-20T06:17:01;1.20;;;0.80;;
26906;SDS011;14472;56.880;16.658;2023-05-20T06:19:28;4.23;;;1.60;;
26906;SDS011;14472;56.880;16.658;2023-05-20T06:21:54;3.53;;;1.30;;
26906;SDS011;14472;56.880;16.658;2023-05-20T06:24:21;4.60;;;1.50;;
26906;SDS011;14472;56.880;16.658;2023-05-20T06:26:47;3.00;;;1.20;;
26906;SDS011;14472;56.880;16.658;2023-05-20T06:29:14;2.37;;;1.17;;
26906;SDS011;14472;56.880;16.658;2023-05-20T06:31:40;2.53;;;0.90;;
26906;SDS011;14472;56.880;16.658;2023-05-20T06:34:06;3.37;;;1.10;;
26906;SDS011;14472;56.880;16.658;2023-05-20T06:36:31;2.07;;;0.90;;
26906;SDS011;14472;56.880;16.658;2023-05-20T06:38:58;1.57;;;0.90;;
26906;SDS011;14472;56.880;16.658;2023-05-20T06:41:24;1.90;;;1.03;;
26906;SDS011;14472;56.880;16.658;2023-05-20T06:43:50;3.10;;;0.80;;
26906;SDS011;14472;56.880;16.658;2023-05-20T06:46:16;2.20;;;0.80;;
26906;SDS011;14472;56.880;16.658;2023-05-20T06:48:42;2.00;;;0.87;;
26906;SDS011;14472;56.880;16.658;2023-05-20T06:51:08;1.97;;;0.87;;
26906;SDS011;14472;56.880;16.658;2023-05-20T06:53:34;1.87;;;0.90;;
26906;SDS011;14472;56.880;16.658;2023-05-20T06:56:00;1.63;;;0.77;;
26906;SDS011;14472;56.880;16.658;2023-05-20T06:58:27;2.73;;;0.73;;
26906;SDS011;14472;56.880;16.658;2023-05-20T07:00:53;1.37;;;0.77;;
26906;SDS011;14472;56.880;16.658;2023-05-20T07:03:18;2.67;;;0.80;;
26906;SDS011;14472;56.880;16.658;2023-05-20T07:05:44;1.83;;;0.80;;
26906;SDS011;14472;56.880;16.658;2023-05-20T07:08:10;1.70;;;0.70;;
26906;SDS011;14472;56.880;16.658;2023-05-20T07:10:36;1.90;;;0.70;;
26906;SDS011;14472;56.880;16.658;2023-05-20T07:13:02;1.80;;;0.60;;
26906;SDS011;14472;56.880;16.658;2023-05-20T07:15:28;1.43;;;0.63;;
26906;SDS011;14472;56.880;16.658;2023-05-20T07:17:53;2.60;;;0.70;;
26906;SDS011;14472;56.880;16.658;2023-05-20T07:20:19;1.40;;;0.67;;
26906;SDS011;14472;56.880;16.658;2023-05-20T07:22:45;1.50;;;0.90;;
26906;SDS011;14472;56.880;16.658;2023-05-20T07:25:12;1.70;;;0.73;;
26906;SDS011;14472;56.880;16.658;2023-05-20T07:27:38;1.43;;;0.60;;
26906;SDS011;14472;56.880;16.658;2023-05-20T07:30:04;1.93;;;0.73;;
26906;SDS011;14472;56.880;16.658;2023-05-20T07:32:30;1.70;;;0.70;;
26906;SDS011;14472;56.880;16.658;2023-05-20T07:34:56;1.03;;;0.60;;
26906;SDS011;14472;56.880;16.658;2023-05-20T07:37:22;0.57;;;0.57;;
26906;SDS011;14472;56.880;16.658;2023-05-20T07:39:48;2.67;;;0.90;;
26906;SDS011;14472;56.880;16.658;2023-05-20T07:42:13;2.07;;;0.90;;
26906;SDS011;14472;56.880;16.658;2023-05-20T07:44:39;1.30;;;0.67;;
26906;SDS011;14472;56.880;16.658;2023-05-20T07:47:05;2.63;;;0.87;;
26906;SDS011;14472;56.880;16.658;2023-05-20T07:49:31;1.90;;;0.70;;
26906;SDS011;14472;56.880;16.658;2023-05-20T07:51:56;1.77;;;0.80;;
26906;SDS011;14472;56.880;16.658;2023-05-20T07:54:23;2.37;;;0.80;;
26906;SDS011;14472;56.880;16.658;2023-05-20T07:56:48;2.20;;;0.80;;
26906;SDS011;14472;56.880;16.658;2023-05-20T07:59:17;2.70;;;0.80;;
26906;SDS011;14472;56.880;16.658;2023-05-20T08:01:43;2.97;;;0.80;;
26906;SDS011;14472;56.880;16.658;2023-05-20T08:04:09;0.73;;;0.60;;
26906;SDS011;14472;56.880;16.658;2023-05-20T08:06:34;0.97;;;0.60;;
26906;SDS011;14472;56.880;16.658;2023-05-20T08:09:01;1.57;;;0.70;;
26906;SDS011;14472;56.880;16.658;2023-05-20T08:11:27;0.67;;;0.63;;
26906;SDS011;14472;56.880;16.658;2023-05-20T08:13:53;1.27;;;0.70;;
26906;SDS011;14472;56.880;16.658;2023-05-20T08:16:20;1.53;;;0.77;;
26906;SDS011;14472;56.880;16.658;2023-05-20T08:18:46;1.67;;;0.70;;
26906;SDS011;14472;56.880;16.658;2023-05-20T08:21:12;1.17;;;0.80;;
26906;SDS011;14472;56.880;16.658;2023-05-20T08:23:38;1.43;;;0.77;;
26906;SDS011;14472;56.880;16.658;2023-05-20T08:26:04;2.43;;;0.70;;
26906;SDS011;14472;56.880;16.658;2023-05-20T08:28:30;1.77;;;0.70;;
26906;SDS011;14472;56.880;16.658;2023-05-20T08:30:56;1.20;;;0.70;;
26906;SDS011;14472;56.880;16.658;2023-05-20T08:33:22;1.07;;;0.70;;
26906;SDS011;14472;56.880;16.658;2023-05-20T08:35:51;1.63;;;0.97;;
26906;SDS011;14472;56.880;16.658;2023-05-20T08:38:17;0.80;;;0.53;;
26906;SDS011;14472;56.880;16.658;2023-05-20T08:41:00;1.43;;;0.70;;
26906;SDS011;14472;56.880;16.658;2023-05-20T08:43:26;1.27;;;0.80;;
26906;SDS011;14472;56.880;16.658;2023-05-20T08:45:54;2.40;;;0.73;;
26906;SDS011;14472;56.880;16.658;2023-05-20T08:48:21;3.03;;;1.10;;
26906;SDS011;14472;56.880;16.658;2023-05-20T08:50:50;1.33;;;0.70;;
26906;SDS011;14472;56.880;16.658;2023-05-20T08:53:17;1.97;;;0.67;;
26906;SDS011;14472;56.880;16.658;2023-05-20T08:55:54;1.20;;;0.70;;
26906;SDS011;14472;56.880;16.658;2023-05-20T08:58:22;1.90;;;0.60;;
26906;SDS011;14472;56.880;16.658;2023-05-20T09:00:49;1.20;;;0.70;;
26906;SDS011;14472;56.880;16.658;2023-05-20T09:03:17;1.80;;;0.70;;
26906;SDS011;14472;56.880;16.658;2023-05-20T09:05:44;1.73;;;0.83;;
26906;SDS011;14472;56.880;16.658;2023-05-20T09:08:11;3.93;;;0.90;;
26906;SDS011;14472;56.880;16.658;2023-05-20T09:10:38;3.63;;;1.00;;
26906;SDS011;14472;56.880;16.658;2023-05-20T09:13:06;4.17;;;0.87;;
26906;SDS011;14472;56.880;16.658;2023-05-20T09:15:33;3.03;;;0.83;;
26906;SDS011;14472;56.880;16.658;2023-05-20T09:17:59;3.63;;;1.23;;
26906;SDS011;14472;56.880;16.658;2023-05-20T09:20:26;2.20;;;0.80;;
26906;SDS011;14472;56.880;16.658;2023-05-20T09:23:02;2.00;;;0.60;;
26906;SDS011;14472;56.880;16.658;2023-05-20T09:25:30;3.63;;;1.07;;
26906;SDS011;14472;56.880;16.658;2023-05-20T09:27:56;1.93;;;1.00;;
26906;SDS011;14472;56.880;16.658;2023-05-20T09:30:22;4.50;;;0.83;;
26906;SDS011;14472;56.880;16.658;2023-05-20T09:32:55;5.80;;;0.80;;
26906;SDS011;14472;56.880;16.658;2023-05-20T09:35:25;1.83;;;0.70;;
26906;SDS011;14472;56.880;16.658;2023-05-20T09:37:52;2.13;;;0.73;;
26906;SDS011;14472;56.880;16.658;2023-05-20T09:40:28;4.03;;;0.80;;
26906;SDS011;14472;56.880;16.658;2023-05-20T09:45:21;1.23;;;0.70;;
26906;SDS011;14472;56.880;16.658;2023-05-20T09:47:51;2.87;;;0.90;;
26906;SDS011;14472;56.880;16.658;2023-05-20T09:50:21;1.70;;;0.80;;
26906;SDS011;14472;56.880;16.658;2023-05-20T09:52:49;2.33;;;0.67;;
26906;SDS011;14472;56.880;16.658;2023-05-20T09:55:20;3.83;;;1.03;;
26906;SDS011;14472;56.880;16.658;2023-05-20T09:57:48;1.57;;;0.70;;
26906;SDS011;14472;56.880;16.658;2023-05-20T10:00:14;4.30;;;0.80;;
26906;SDS011;14472;56.880;16.658;2023-05-20T10:02:45;1.63;;;0.70;;
26906;SDS011;14472;56.880;16.658;2023-05-20T10:05:18;2.73;;;0.80;;
26906;SDS011;14472;56.880;16.658;2023-05-20T10:16:00;2.87;;;0.97;;
26906;SDS011;14472;56.880;16.658;2023-05-20T10:20:58;2.60;;;1.07;;
26906;SDS011;14472;56.880;16.658;2023-05-20T10:23:28;1.13;;;0.80;;
26906;SDS011;14472;56.880;16.658;2023-05-20T10:25:55;1.23;;;0.90;;
26906;SDS011;14472;56.880;16.658;2023-05-20T10:28:32;2.00;;;0.80;;
26906;SDS011;14472;56.880;16.658;2023-05-20T10:31:13;1.10;;;0.90;;
26906;SDS011;14472;56.880;16.658;2023-05-20T10:33:45;2.57;;;0.80;;
26906;SDS011;14472;56.880;16.658;2023-05-20T10:36:27;2.67;;;1.30;;
26906;SDS011;14472;56.880;16.658;2023-05-20T10:38:56;1.10;;;0.90;;
26906;SDS011;14472;56.880;16.658;2023-05-20T10:41:23;3.23;;;0.90;;
26906;SDS011;14472;56.880;16.658;2023-05-20T10:44:02;2.47;;;1.03;;
26906;SDS011;14472;56.880;16.658;2023-05-20T10:46:30;1.33;;;0.90;;
26906;SDS011;14472;56.880;16.658;2023-05-20T10:48:57;1.83;;;1.20;;
26906;SDS011;14472;56.880;16.658;2023-05-20T10:51:23;1.47;;;1.00;;
26906;SDS011;14472;56.880;16.658;2023-05-20T10:53:53;2.40;;;0.80;;
26906;SDS011;14472;56.880;16.658;2023-05-20T10:56:20;2.87;;;0.90;;
26906;SDS011;14472;56.880;16.658;2023-05-20T10:58:47;2.63;;;1.03;;
26906;SDS011;14472;56.880;16.658;2023-05-20T11:01:15;3.37;;;1.30;;
26906;SDS011;14472;56.880;16.658;2023-05-20T11:03:42;9.43;;;1.27;;
26906;SDS011;14472;56.880;16.658;2023-05-20T11:08:38;2.83;;;1.03;;
26906;SDS011;14472;56.880;16.658;2023-05-20T11:11:04;2.87;;;1.10;;
26906;SDS011;14472;56.880;16.658;2023-05-20T11:13:31;3.47;;;1.00;;
26906;SDS011;14472;56.880;16.658;2023-05-20T11:15:57;3.77;;;1.23;;
26906;SDS011;14472;56.880;16.658;2023-05-20T11:18:25;1.70;;;0.90;;
26906;SDS011;14472;56.880;16.658;2023-05-20T11:20:57;1.43;;;0.70;;
26906;SDS011;14472;56.880;16.658;2023-05-20T11:23:25;2.87;;;1.00;;
26906;SDS011;14472;56.880;16.658;2023-05-20T11:25:52;2.60;;;0.90;;
26906;SDS011;14472;56.880;16.658;2023-05-20T11:28:20;2.63;;;1.00;;
26906;SDS011;14472;56.880;16.658;2023-05-20T11:30:46;2.67;;;1.03;;
26906;SDS011;14472;56.880;16.658;2023-05-20T11:33:13;2.20;;;1.25;;
26906;SDS011;14472;56.880;16.658;2023-05-20T11:35:49;2.33;;;1.00;;
26906;SDS011;14472;56.880;16.658;2023-05-20T11:38:16;3.13;;;1.10;;
26906;SDS011;14472;56.880;16.658;2023-05-20T11:40:44;2.70;;;1.00;;
26906;SDS011;14472;56.880;16.658;2023-05-20T11:43:11;2.57;;;1.00;;
26906;SDS011;14472;56.880;16.658;2023-05-20T11:45:41;3.00;;;1.00;;
26906;SDS011;14472;56.880;16.658;2023-05-20T11:48:09;2.45;;;1.10;;
26906;SDS011;14472;56.880;16.658;2023-05-20T11:50:45;1.67;;;1.17;;
26906;SDS011;14472;56.880;16.658;2023-05-20T11:53:18;3.50;;;1.47;;
26906;SDS011;14472;56.880;16.658;2023-05-20T11:55:54;5.97;;;1.37;;
26906;SDS011;14472;56.880;16.658;2023-05-20T11:58:22;1.60;;;1.10;;
26906;SDS011;14472;56.880;16.658;2023-05-20T12:00:50;1.63;;;1.10;;
26906;SDS011;14472;56.880;16.658;2023-05-20T12:03:16;2.53;;;1.25;;
26906;SDS011;14472;56.880;16.658;2023-05-20T12:05:43;4.80;;;1.30;;
26906;SDS011;14472;56.880;16.658;2023-05-20T12:08:09;2.30;;;1.23;;
26906;SDS011;14472;56.880;16.658;2023-05-20T12:10:35;3.90;;;1.27;;
26906;SDS011;14472;56.880;16.658;2023-05-20T12:13:08;2.83;;;1.30;;
26906;SDS011;14472;56.880;16.658;2023-05-20T12:15:37;2.10;;;1.07;;
26906;SDS011;14472;56.880;16.658;2023-05-20T12:18:03;3.63;;;1.40;;
26906;SDS011;14472;56.880;16.658;2023-05-20T12:20:32;4.20;;;1.40;;
26906;SDS011;14472;56.880;16.658;2023-05-20T12:22:58;2.80;;;1.40;;
26906;SDS011;14472;56.880;16.658;2023-05-20T12:25:28;2.13;;;1.30;;
26906;SDS011;14472;56.880;16.658;2023-05-20T12:27:54;3.53;;;1.50;;
26906;SDS011;14472;56.880;16.658;2023-05-20T12:30:21;3.47;;;1.20;;
26906;SDS011;14472;56.880;16.658;2023-05-20T12:32:48;2.73;;;1.40;;
26906;SDS011;14472;56.880;16.658;2023-05-20T12:35:15;3.27;;;1.30;;
26906;SDS011;14472;56.880;16.658;2023-05-20T12:37:42;4.33;;;1.70;;
26906;SDS011;14472;56.880;16.658;2023-05-20T12:40:09;3.58;;;1.60;;
26906;SDS011;14472;56.880;16.658;2023-05-20T12:42:40;2.60;;;1.27;;
26906;SDS011;14472;56.880;16.658;2023-05-20T12:45:06;2.50;;;1.45;;
26906;SDS011;14472;56.880;16.658;2023-05-20T12:47:33;3.27;;;1.77;;
26906;SDS011;14472;56.880;16.658;2023-05-20T12:50:00;2.03;;;1.58;;
26906;SDS011;14472;56.880;16.658;2023-05-20T12:52:27;1.90;;;1.60;;
26906;SDS011;14472;56.880;16.658;2023-05-20T12:54:53;5.63;;;1.80;;
26906;SDS011;14472;56.880;16.658;2023-05-20T12:57:21;3.20;;;1.48;;
26906;SDS011;14472;56.880;16.658;2023-05-20T12:59:48;2.35;;;1.40;;
26906;SDS011;14472;56.880;16.658;2023-05-20T13:02:14;3.40;;;1.60;;
26906;SDS011;14472;56.880;16.658;2023-05-20T13:04:39;4.65;;;2.05;;
26906;SDS011;14472;56.880;16.658;2023-05-20T13:07:05;4.30;;;1.70;;
26906;SDS011;14472;56.880;16.658;2023-05-20T13:09:33;4.78;;;1.70;;
26906;SDS011;14472;56.880;16.658;2023-05-20T13:11:59;3.50;;;1.50;;
26906;SDS011;14472;56.880;16.658;2023-05-20T13:14:27;3.38;;;1.45;;
26906;SDS011;14472;56.880;16.658;2023-05-20T13:16:53;5.93;;;1.77;;
26906;SDS011;14472;56.880;16.658;2023-05-20T13:19:22;3.08;;;1.55;;
26906;SDS011;14472;56.880;16.658;2023-05-20T13:21:49;3.50;;;1.40;;
26906;SDS011;14472;56.880;16.658;2023-05-20T13:24:16;2.35;;;1.25;;
26906;SDS011;14472;56.880;16.658;2023-05-20T13:26:42;4.38;;;1.50;;
26906;SDS011;14472;56.880;16.658;2023-05-20T13:29:08;3.58;;;1.30;;
26906;SDS011;14472;56.880;16.658;2023-05-20T13:31:34;5.47;;;1.50;;
26906;SDS011;14472;56.880;16.658;2023-05-20T13:34:00;2.42;;;1.45;;
26906;SDS011;14472;56.880;16.658;2023-05-20T13:36:26;1.67;;;1.35;;
26906;SDS011;14472;56.880;16.658;2023-05-20T13:38:52;2.80;;;1.50;;
26906;SDS011;14472;56.880;16.658;2023-05-20T13:41:17;6.75;;;1.50;;
26906;SDS011;14472;56.880;16.658;2023-05-20T13:43:46;6.82;;;1.50;;
26906;SDS011;14472;56.880;16.658;2023-05-20T13:46:13;2.20;;;1.50;;
26906;SDS011;14472;56.880;16.658;2023-05-20T13:48:39;3.63;;;1.73;;
26906;SDS011;14472;56.880;16.658;2023-05-20T13:51:05;3.30;;;1.73;;
26906;SDS011;14472;56.880;16.658;2023-05-20T13:53:31;5.13;;;1.88;;
26906;SDS011;14472;56.880;16.658;2023-05-20T13:55:57;3.38;;;1.30;;
26906;SDS011;14472;56.880;16.658;2023-05-20T13:58:22;2.65;;;1.50;;
26906;SDS011;14472;56.880;16.658;2023-05-20T14:00:48;2.70;;;1.63;;
26906;SDS011;14472;56.880;16.658;2023-05-20T14:03:14;2.85;;;1.33;;
26906;SDS011;14472;56.880;16.658;2023-05-20T14:05:40;2.65;;;1.20;;
26906;SDS011;14472;56.880;16.658;2023-05-20T14:08:07;2.20;;;1.17;;
26906;SDS011;14472;56.880;16.658;2023-05-20T14:10:33;3.63;;;1.10;;
26906;SDS011;14472;56.880;16.658;2023-05-20T14:12:58;4.18;;;1.52;;
26906;SDS011;14472;56.880;16.658;2023-05-20T14:15:26;2.75;;;1.13;;
26906;SDS011;14472;56.880;16.658;2023-05-20T14:17:54;2.72;;;1.50;;
26906;SDS011;14472;56.880;16.658;2023-05-20T14:20:22;3.28;;;1.33;;
26906;SDS011;14472;56.880;16.658;2023-05-20T14:22:48;4.90;;;1.40;;
26906;SDS011;14472;56.880;16.658;2023-05-20T14:25:14;5.57;;;1.65;;
26906;SDS011;14472;56.880;16.658;2023-05-20T14:27:39;3.85;;;1.65;;
26906;SDS011;14472;56.880;16.658;2023-05-20T14:30:05;4.43;;;1.58;;
26906;SDS011;14472;56.880;16.658;2023-05-20T14:32:32;5.88;;;1.40;;
26906;SDS011;14472;56.880;16.658;2023-05-20T14:34:57;3.80;;;1.40;;
26906;SDS011;14472;56.880;16.658;2023-05-20T14:37:24;3.20;;;1.20;;
26906;SDS011;14472;56.880;16.658;2023-05-20T14:39:51;2.92;;;1.42;;
26906;SDS011;14472;56.880;16.658;2023-05-20T14:42:17;3.40;;;1.20;;
26906;SDS011;14472;56.880;16.658;2023-05-20T14:44:42;4.38;;;1.23;;
26906;SDS011;14472;56.880;16.658;2023-05-20T14:47:08;3.80;;;1.30;;
26906;SDS011;14472;56.880;16.658;2023-05-20T14:49:34;1.85;;;1.30;;